Mount Aukum, California
Current Conditions -  °F | °C
As of 6:55 AM on Friday 28 Nov 2014 (Local Time) from KPVF Reporting Station
Clear Clear  
Wind Chill: 59°   Ceiling: Unl
Heat Index: 59°   Visibility: 10mi
Dew Point: 14°   Wind: 7mph
Humidity: 17%   Direction: 150°SSE
Pressure: 30.04"   Gusts: NA
Location:  38.55°N, 120.73°W
Report Text: KPVF 281455Z AUTO 15006KT 10SM CLR 15/M10 A3004 RMK AO1
Loading
Personal Weather Stations






























Interactive Weather Map New forecast layout! Learn more

10-Day Weather Forecast

Advertisements
Track Severe Weather on mobile